Pagrindinis puslapis
METAR-TAF:

METAR-TAF

Oro uostai :

Čiangmajus, Tailandas

platuma: 18-47N, ilguma: 098-59E, Aukštis: 312 m

Dabartinis oras

Ataskaita buvo paskelbta 31 minutes, ne 16:00 UTC
Ramus vėjas
Temperatūra 23°C
Drėgmė 78%
Slėgis 1016 hPa
Matomumas 10 km arba daugiau
Mažai debesys ne aukštis 3500 ft

METAR: VTCC 191600Z 00000KT 9999 FEW035 23/19 Q1016 NOSIG

Laikas: 23:31 (16:31 UTC)

Prognozė

Ataskaita buvo paskelbta 5 valandos ir 31 minutes, ne 11:00 UTC
Prognozė galioja nuo 19 metu 12 UTC su 20 metu 18 UTC
Vėjas 5 kt iš Pietų/Pietryčių
Matomumas 10 km arba daugiau
Mažai debesys ne aukštis 3500 ft

TAF: VTCC 191100Z 1912/2018 16005KT 9999 FEW035

Orai ataskaitas ir orų prognozės (METAR, TAF).

turimą stotys yra geltonos ir raudonos taškus žemėlapyje.

Perkelti pele per norėdami pamatyti stoties vardą.

Tada spustelėkite, norėdami matyti oro stebėjimo ir prognozės.

Norėdami pakeisti žemėlapį: spustelėkite ant žalios mygtukų su juodo kryžiaus žemyn,; žalią mygtuką su brūkšneliu, jei norite nutolinti; arba žalių rodyklių gretimoms žemėlapius.


METAR-TAF: